sensor_id;sensor_type;location;lat;lon;timestamp;P1;durP1;ratioP1;P2;durP2;ratioP2
22812;SDS011;11573;51.334;3.244;2022-12-05T00:03:46;65.20;;;31.52;;
22812;SDS011;11573;51.334;3.244;2022-12-05T00:06:15;68.97;;;33.70;;
22812;SDS011;11573;51.334;3.244;2022-12-05T00:08:43;64.80;;;33.33;;
22812;SDS011;11573;51.334;3.244;2022-12-05T00:11:11;66.78;;;32.72;;
22812;SDS011;11573;51.334;3.244;2022-12-05T00:13:40;58.55;;;31.20;;
22812;SDS011;11573;51.334;3.244;2022-12-05T00:16:08;65.90;;;31.88;;
22812;SDS011;11573;51.334;3.244;2022-12-05T00:18:37;62.35;;;31.27;;
22812;SDS011;11573;51.334;3.244;2022-12-05T00:21:04;62.35;;;32.42;;
22812;SDS011;11573;51.334;3.244;2022-12-05T00:23:32;64.82;;;32.47;;
22812;SDS011;11573;51.334;3.244;2022-12-05T00:26:03;65.63;;;33.53;;
22812;SDS011;11573;51.334;3.244;2022-12-05T00:28:30;59.42;;;30.90;;
22812;SDS011;11573;51.334;3.244;2022-12-05T00:31:05;56.85;;;31.08;;
22812;SDS011;11573;51.334;3.244;2022-12-05T00:33:34;62.80;;;32.38;;
22812;SDS011;11573;51.334;3.244;2022-12-05T00:36:05;60.50;;;31.58;;
22812;SDS011;11573;51.334;3.244;2022-12-05T00:41:08;55.78;;;28.83;;
22812;SDS011;11573;51.334;3.244;2022-12-05T00:43:43;60.75;;;28.58;;
22812;SDS011;11573;51.334;3.244;2022-12-05T00:46:12;50.40;;;27.27;;
22812;SDS011;11573;51.334;3.244;2022-12-05T00:48:41;50.90;;;27.27;;
22812;SDS011;11573;51.334;3.244;2022-12-05T00:53:39;49.70;;;26.88;;
22812;SDS011;11573;51.334;3.244;2022-12-05T00:56:08;51.70;;;27.77;;
22812;SDS011;11573;51.334;3.244;2022-12-05T00:58:37;58.92;;;29.83;;
22812;SDS011;11573;51.334;3.244;2022-12-05T01:01:09;51.60;;;27.67;;
22812;SDS011;11573;51.334;3.244;2022-12-05T01:03:38;54.00;;;28.08;;
22812;SDS011;11573;51.334;3.244;2022-12-05T01:06:06;52.10;;;27.38;;
22812;SDS011;11573;51.334;3.244;2022-12-05T01:08:33;51.42;;;27.80;;
22812;SDS011;11573;51.334;3.244;2022-12-05T01:11:01;50.55;;;27.38;;
22812;SDS011;11573;51.334;3.244;2022-12-05T01:13:29;53.53;;;27.50;;
22812;SDS011;11573;51.334;3.244;2022-12-05T01:15:57;45.35;;;25.67;;
22812;SDS011;11573;51.334;3.244;2022-12-05T01:18:24;46.47;;;25.77;;
22812;SDS011;11573;51.334;3.244;2022-12-05T01:20:51;49.20;;;26.00;;
22812;SDS011;11573;51.334;3.244;2022-12-05T01:23:19;45.63;;;24.67;;
22812;SDS011;11573;51.334;3.244;2022-12-05T01:25:47;44.20;;;23.63;;
22812;SDS011;11573;51.334;3.244;2022-12-05T01:28:16;45.20;;;22.55;;
22812;SDS011;11573;51.334;3.244;2022-12-05T01:30:44;41.22;;;22.25;;
22812;SDS011;11573;51.334;3.244;2022-12-05T01:33:13;42.45;;;23.10;;
22812;SDS011;11573;51.334;3.244;2022-12-05T01:35:41;38.25;;;21.67;;
22812;SDS011;11573;51.334;3.244;2022-12-05T01:38:09;39.35;;;21.83;;
22812;SDS011;11573;51.334;3.244;2022-12-05T01:40:37;42.83;;;23.05;;
22812;SDS011;11573;51.334;3.244;2022-12-05T01:43:05;39.97;;;21.50;;
22812;SDS011;11573;51.334;3.244;2022-12-05T01:45:41;39.40;;;21.02;;
22812;SDS011;11573;51.334;3.244;2022-12-05T01:48:15;41.38;;;22.27;;
22812;SDS011;11573;51.334;3.244;2022-12-05T01:50:45;37.38;;;22.00;;
22812;SDS011;11573;51.334;3.244;2022-12-05T01:53:14;42.00;;;22.10;;
22812;SDS011;11573;51.334;3.244;2022-12-05T01:55:43;39.03;;;22.10;;
22812;SDS011;11573;51.334;3.244;2022-12-05T01:58:12;38.65;;;21.33;;
22812;SDS011;11573;51.334;3.244;2022-12-05T02:00:40;42.03;;;23.55;;
22812;SDS011;11573;51.334;3.244;2022-12-05T02:03:08;43.10;;;23.48;;
22812;SDS011;11573;51.334;3.244;2022-12-05T02:05:40;41.17;;;22.95;;
22812;SDS011;11573;51.334;3.244;2022-12-05T02:08:08;41.95;;;22.98;;
22812;SDS011;11573;51.334;3.244;2022-12-05T02:10:38;39.60;;;22.10;;
22812;SDS011;11573;51.334;3.244;2022-12-05T02:13:30;44.67;;;22.75;;
22812;SDS011;11573;51.334;3.244;2022-12-05T02:18:33;45.60;;;24.52;;
22812;SDS011;11573;51.334;3.244;2022-12-05T02:35:15;49.15;;;26.75;;
22812;SDS011;11573;51.334;3.244;2022-12-05T02:43:55;48.78;;;24.77;;
22812;SDS011;11573;51.334;3.244;2022-12-05T02:46:30;43.08;;;24.90;;
22812;SDS011;11573;51.334;3.244;2022-12-05T02:49:00;45.88;;;25.30;;
22812;SDS011;11573;51.334;3.244;2022-12-05T02:51:32;44.05;;;24.70;;
22812;SDS011;11573;51.334;3.244;2022-12-05T02:54:04;41.28;;;24.05;;
22812;SDS011;11573;51.334;3.244;2022-12-05T02:56:35;47.38;;;24.15;;
22812;SDS011;11573;51.334;3.244;2022-12-05T02:59:03;45.10;;;24.15;;
22812;SDS011;11573;51.334;3.244;2022-12-05T03:01:30;43.83;;;24.08;;
22812;SDS011;11573;51.334;3.244;2022-12-05T03:03:59;43.13;;;23.70;;
22812;SDS011;11573;51.334;3.244;2022-12-05T03:09:02;51.45;;;25.88;;
22812;SDS011;11573;51.334;3.244;2022-12-05T03:11:33;47.78;;;26.00;;
22812;SDS011;11573;51.334;3.244;2022-12-05T03:14:12;43.50;;;24.55;;
22812;SDS011;11573;51.334;3.244;2022-12-05T03:16:48;53.05;;;25.63;;
22812;SDS011;11573;51.334;3.244;2022-12-05T03:19:22;53.80;;;26.77;;
22812;SDS011;11573;51.334;3.244;2022-12-05T03:21:58;52.05;;;27.10;;
22812;SDS011;11573;51.334;3.244;2022-12-05T03:24:29;55.45;;;27.52;;
22812;SDS011;11573;51.334;3.244;2022-12-05T03:29:54;52.10;;;27.15;;
22812;SDS011;11573;51.334;3.244;2022-12-05T03:35:01;52.45;;;27.33;;
22812;SDS011;11573;51.334;3.244;2022-12-05T03:37:38;55.78;;;28.50;;
22812;SDS011;11573;51.334;3.244;2022-12-05T03:43:10;54.33;;;27.65;;
22812;SDS011;11573;51.334;3.244;2022-12-05T03:46:02;51.28;;;26.60;;
22812;SDS011;11573;51.334;3.244;2022-12-05T03:48:51;53.95;;;27.35;;
22812;SDS011;11573;51.334;3.244;2022-12-05T03:51:21;54.55;;;28.38;;
22812;SDS011;11573;51.334;3.244;2022-12-05T03:53:57;59.30;;;28.80;;
22812;SDS011;11573;51.334;3.244;2022-12-05T03:56:36;56.20;;;28.20;;
22812;SDS011;11573;51.334;3.244;2022-12-05T04:01:37;51.15;;;27.90;;
22812;SDS011;11573;51.334;3.244;2022-12-05T04:04:16;49.95;;;26.08;;
22812;SDS011;11573;51.334;3.244;2022-12-05T04:06:52;57.03;;;28.52;;
22812;SDS011;11573;51.334;3.244;2022-12-05T04:09:27;53.47;;;28.45;;
22812;SDS011;11573;51.334;3.244;2022-12-05T04:11:59;48.97;;;26.50;;
22812;SDS011;11573;51.334;3.244;2022-12-05T04:14:34;53.63;;;28.50;;
22812;SDS011;11573;51.334;3.244;2022-12-05T04:17:05;50.15;;;28.42;;
22812;SDS011;11573;51.334;3.244;2022-12-05T04:19:51;54.10;;;27.55;;
22812;SDS011;11573;51.334;3.244;2022-12-05T04:22:40;53.53;;;27.33;;
22812;SDS011;11573;51.334;3.244;2022-12-05T04:25:09;54.47;;;28.48;;
22812;SDS011;11573;51.334;3.244;2022-12-05T04:36:29;52.38;;;27.73;;
22812;SDS011;11573;51.334;3.244;2022-12-05T04:41:55;52.15;;;27.63;;
22812;SDS011;11573;51.334;3.244;2022-12-05T04:44:29;55.10;;;28.45;;
22812;SDS011;11573;51.334;3.244;2022-12-05T04:47:02;53.92;;;28.73;;
22812;SDS011;11573;51.334;3.244;2022-12-05T04:49:31;52.00;;;29.38;;
22812;SDS011;11573;51.334;3.244;2022-12-05T04:52:01;52.25;;;29.13;;
22812;SDS011;11573;51.334;3.244;2022-12-05T04:54:46;57.38;;;28.88;;
22812;SDS011;11573;51.334;3.244;2022-12-05T04:57:26;51.90;;;28.73;;
22812;SDS011;11573;51.334;3.244;2022-12-05T04:59:58;55.42;;;30.23;;
22812;SDS011;11573;51.334;3.244;2022-12-05T05:02:33;55.42;;;29.80;;
22812;SDS011;11573;51.334;3.244;2022-12-05T05:05:08;53.60;;;30.10;;
22812;SDS011;11573;51.334;3.244;2022-12-05T05:07:46;59.17;;;30.27;;
22812;SDS011;11573;51.334;3.244;2022-12-05T05:10:21;62.97;;;29.35;;
22812;SDS011;11573;51.334;3.244;2022-12-05T05:12:54;57.83;;;30.58;;
22812;SDS011;11573;51.334;3.244;2022-12-05T05:15:21;57.35;;;30.15;;
22812;SDS011;11573;51.334;3.244;2022-12-05T05:17:48;57.95;;;29.77;;
22812;SDS011;11573;51.334;3.244;2022-12-05T05:20:15;56.33;;;29.40;;
22812;SDS011;11573;51.334;3.244;2022-12-05T05:22:53;56.97;;;29.88;;
22812;SDS011;11573;51.334;3.244;2022-12-05T05:25:21;59.55;;;29.45;;
22812;SDS011;11573;51.334;3.244;2022-12-05T05:27:49;54.88;;;30.58;;
22812;SDS011;11573;51.334;3.244;2022-12-05T05:30:17;58.08;;;32.58;;
22812;SDS011;11573;51.334;3.244;2022-12-05T05:32:45;64.90;;;32.45;;
22812;SDS011;11573;51.334;3.244;2022-12-05T05:35:12;63.42;;;31.55;;
22812;SDS011;11573;51.334;3.244;2022-12-05T05:37:40;62.60;;;32.13;;
22812;SDS011;11573;51.334;3.244;2022-12-05T05:40:08;68.00;;;34.65;;
22812;SDS011;11573;51.334;3.244;2022-12-05T05:42:40;63.80;;;32.72;;
22812;SDS011;11573;51.334;3.244;2022-12-05T05:45:09;59.80;;;31.55;;
22812;SDS011;11573;51.334;3.244;2022-12-05T05:47:37;61.80;;;33.20;;
22812;SDS011;11573;51.334;3.244;2022-12-05T05:50:04;62.60;;;31.42;;
22812;SDS011;11573;51.334;3.244;2022-12-05T05:52:32;69.72;;;32.08;;
22812;SDS011;11573;51.334;3.244;2022-12-05T05:55:00;61.05;;;32.50;;
22812;SDS011;11573;51.334;3.244;2022-12-05T05:57:29;61.10;;;31.05;;
22812;SDS011;11573;51.334;3.244;2022-12-05T05:59:56;58.08;;;30.80;;
22812;SDS011;11573;51.334;3.244;2022-12-05T06:02:24;53.30;;;28.15;;
22812;SDS011;11573;51.334;3.244;2022-12-05T06:04:51;55.15;;;28.65;;
22812;SDS011;11573;51.334;3.244;2022-12-05T06:07:18;57.00;;;28.70;;
22812;SDS011;11573;51.334;3.244;2022-12-05T06:09:44;52.97;;;28.88;;
22812;SDS011;11573;51.334;3.244;2022-12-05T06:12:11;47.85;;;27.15;;
22812;SDS011;11573;51.334;3.244;2022-12-05T06:14:38;46.83;;;26.02;;
22812;SDS011;11573;51.334;3.244;2022-12-05T06:17:05;49.70;;;27.15;;
22812;SDS011;11573;51.334;3.244;2022-12-05T06:19:32;50.95;;;27.95;;
22812;SDS011;11573;51.334;3.244;2022-12-05T06:21:59;47.53;;;25.50;;
22812;SDS011;11573;51.334;3.244;2022-12-05T06:24:26;48.38;;;26.40;;
22812;SDS011;11573;51.334;3.244;2022-12-05T06:26:53;41.83;;;23.75;;
22812;SDS011;11573;51.334;3.244;2022-12-05T06:29:19;45.45;;;24.17;;
22812;SDS011;11573;51.334;3.244;2022-12-05T06:31:51;42.72;;;23.73;;
22812;SDS011;11573;51.334;3.244;2022-12-05T06:34:18;39.60;;;23.13;;
22812;SDS011;11573;51.334;3.244;2022-12-05T06:36:45;42.17;;;23.95;;
22812;SDS011;11573;51.334;3.244;2022-12-05T06:39:12;41.00;;;24.10;;
22812;SDS011;11573;51.334;3.244;2022-12-05T06:41:38;43.67;;;25.30;;
22812;SDS011;11573;51.334;3.244;2022-12-05T06:44:05;42.15;;;24.48;;
22812;SDS011;11573;51.334;3.244;2022-12-05T06:46:32;42.40;;;24.50;;
22812;SDS011;11573;51.334;3.244;2022-12-05T06:49:00;41.13;;;23.65;;
22812;SDS011;11573;51.334;3.244;2022-12-05T06:51:27;40.63;;;22.52;;
22812;SDS011;11573;51.334;3.244;2022-12-05T06:53:54;38.90;;;22.15;;
22812;SDS011;11573;51.334;3.244;2022-12-05T06:56:21;37.25;;;21.85;;
22812;SDS011;11573;51.334;3.244;2022-12-05T06:58:48;40.95;;;22.85;;
22812;SDS011;11573;51.334;3.244;2022-12-05T07:01:18;37.80;;;22.52;;
22812;SDS011;11573;51.334;3.244;2022-12-05T07:04:40;38.92;;;22.23;;
22812;SDS011;11573;51.334;3.244;2022-12-05T07:07:00;41.20;;;22.33;;
22812;SDS011;11573;51.334;3.244;2022-12-05T07:09:27;43.88;;;23.10;;
22812;SDS011;11573;51.334;3.244;2022-12-05T07:14:42;37.97;;;22.17;;
22812;SDS011;11573;51.334;3.244;2022-12-05T07:17:15;40.28;;;22.58;;
22812;SDS011;11573;51.334;3.244;2022-12-05T07:19:43;36.90;;;22.25;;
22812;SDS011;11573;51.334;3.244;2022-12-05T07:22:12;40.50;;;22.48;;
22812;SDS011;11573;51.334;3.244;2022-12-05T07:24:41;40.13;;;22.60;;
22812;SDS011;11573;51.334;3.244;2022-12-05T07:27:10;41.03;;;23.48;;
22812;SDS011;11573;51.334;3.244;2022-12-05T07:29:37;40.15;;;23.02;;
22812;SDS011;11573;51.334;3.244;2022-12-05T07:32:04;41.28;;;23.23;;
22812;SDS011;11573;51.334;3.244;2022-12-05T07:34:31;37.20;;;22.35;;
22812;SDS011;11573;51.334;3.244;2022-12-05T07:36:58;41.13;;;23.58;;
22812;SDS011;11573;51.334;3.244;2022-12-05T07:39:26;43.90;;;22.70;;
22812;SDS011;11573;51.334;3.244;2022-12-05T07:41:53;38.67;;;23.92;;
22812;SDS011;11573;51.334;3.244;2022-12-05T07:44:20;39.97;;;22.63;;
22812;SDS011;11573;51.334;3.244;2022-12-05T07:46:47;47.47;;;24.15;;
22812;SDS011;11573;51.334;3.244;2022-12-05T07:49:14;41.30;;;23.42;;
22812;SDS011;11573;51.334;3.244;2022-12-05T07:51:43;36.58;;;22.15;;
22812;SDS011;11573;51.334;3.244;2022-12-05T07:54:10;38.10;;;22.75;;
22812;SDS011;11573;51.334;3.244;2022-12-05T07:56:37;43.08;;;24.35;;
22812;SDS011;11573;51.334;3.244;2022-12-05T07:59:11;40.17;;;22.63;;
22812;SDS011;11573;51.334;3.244;2022-12-05T08:01:38;38.88;;;21.50;;
22812;SDS011;11573;51.334;3.244;2022-12-05T08:04:05;41.00;;;21.45;;
22812;SDS011;11573;51.334;3.244;2022-12-05T08:06:40;42.43;;;22.40;;
22812;SDS011;11573;51.334;3.244;2022-12-05T08:09:07;42.53;;;22.65;;
22812;SDS011;11573;51.334;3.244;2022-12-05T08:11:34;36.25;;;20.52;;
22812;SDS011;11573;51.334;3.244;2022-12-05T08:14:02;39.88;;;22.13;;
22812;SDS011;11573;51.334;3.244;2022-12-05T08:16:30;36.03;;;20.48;;
22812;SDS011;11573;51.334;3.244;2022-12-05T08:18:59;38.65;;;22.75;;
22812;SDS011;11573;51.334;3.244;2022-12-05T08:21:28;36.10;;;21.95;;
22812;SDS011;11573;51.334;3.244;2022-12-05T08:23:55;36.58;;;20.92;;
22812;SDS011;11573;51.334;3.244;2022-12-05T08:26:24;36.42;;;21.73;;
22812;SDS011;11573;51.334;3.244;2022-12-05T08:28:57;40.42;;;22.63;;
22812;SDS011;11573;51.334;3.244;2022-12-05T08:31:46;42.15;;;21.90;;
22812;SDS011;11573;51.334;3.244;2022-12-05T08:34:16;37.45;;;21.77;;
22812;SDS011;11573;51.334;3.244;2022-12-05T08:36:45;38.65;;;21.73;;
22812;SDS011;11573;51.334;3.244;2022-12-05T08:39:13;32.13;;;19.85;;
22812;SDS011;11573;51.334;3.244;2022-12-05T08:41:42;32.10;;;20.13;;
22812;SDS011;11573;51.334;3.244;2022-12-05T08:44:10;31.10;;;19.42;;
22812;SDS011;11573;51.334;3.244;2022-12-05T08:46:42;34.92;;;20.65;;
22812;SDS011;11573;51.334;3.244;2022-12-05T08:49:10;38.58;;;22.52;;
22812;SDS011;11573;51.334;3.244;2022-12-05T08:51:37;33.95;;;21.70;;
22812;SDS011;11573;51.334;3.244;2022-12-05T08:54:05;36.38;;;21.02;;
22812;SDS011;11573;51.334;3.244;2022-12-05T08:56:33;36.65;;;21.88;;
22812;SDS011;11573;51.334;3.244;2022-12-05T08:59:00;33.13;;;19.70;;
22812;SDS011;11573;51.334;3.244;2022-12-05T09:01:31;32.20;;;19.90;;
22812;SDS011;11573;51.334;3.244;2022-12-05T09:03:59;31.60;;;20.25;;
22812;SDS011;11573;51.334;3.244;2022-12-05T09:06:26;35.47;;;20.30;;
22812;SDS011;11573;51.334;3.244;2022-12-05T09:08:56;33.95;;;23.45;;
22812;SDS011;11573;51.334;3.244;2022-12-05T09:11:34;35.38;;;22.35;;
22812;SDS011;11573;51.334;3.244;2022-12-05T09:14:03;46.58;;;28.10;;
22812;SDS011;11573;51.334;3.244;2022-12-05T09:16:31;35.88;;;24.00;;
22812;SDS011;11573;51.334;3.244;2022-12-05T09:19:14;36.42;;;22.73;;
22812;SDS011;11573;51.334;3.244;2022-12-05T09:21:43;32.88;;;22.27;;
22812;SDS011;11573;51.334;3.244;2022-12-05T09:24:10;65.18;;;51.10;;
22812;SDS011;11573;51.334;3.244;2022-12-05T09:26:38;79.18;;;56.63;;
22812;SDS011;11573;51.334;3.244;2022-12-05T09:29:06;48.92;;;34.88;;
22812;SDS011;11573;51.334;3.244;2022-12-05T09:31:41;48.22;;;30.27;;
22812;SDS011;11573;51.334;3.244;2022-12-05T09:34:08;38.50;;;25.27;;
22812;SDS011;11573;51.334;3.244;2022-12-05T09:36:35;36.40;;;20.95;;
22812;SDS011;11573;51.334;3.244;2022-12-05T09:39:04;39.95;;;23.80;;
22812;SDS011;11573;51.334;3.244;2022-12-05T09:49:50;37.92;;;22.45;;
22812;SDS011;11573;51.334;3.244;2022-12-05T09:52:32;36.70;;;22.50;;
22812;SDS011;11573;51.334;3.244;2022-12-05T09:55:16;33.80;;;21.85;;
22812;SDS011;11573;51.334;3.244;2022-12-05T09:57:49;28.85;;;19.20;;
22812;SDS011;11573;51.334;3.244;2022-12-05T10:00:18;40.60;;;24.42;;
22812;SDS011;11573;51.334;3.244;2022-12-05T10:05:48;34.20;;;20.80;;
22812;SDS011;11573;51.334;3.244;2022-12-05T10:08:33;30.83;;;19.98;;
22812;SDS011;11573;51.334;3.244;2022-12-05T10:11:27;38.80;;;22.65;;
22812;SDS011;11573;51.334;3.244;2022-12-05T10:16:48;36.03;;;21.08;;
22812;SDS011;11573;51.334;3.244;2022-12-05T10:19:30;36.92;;;22.02;;
22812;SDS011;11573;51.334;3.244;2022-12-05T10:22:14;36.28;;;21.65;;
22812;SDS011;11573;51.334;3.244;2022-12-05T10:24:58;37.03;;;21.30;;
22812;SDS011;11573;51.334;3.244;2022-12-05T10:30:13;46.97;;;26.00;;
22812;SDS011;11573;51.334;3.244;2022-12-05T10:35:19;36.05;;;21.70;;
22812;SDS011;11573;51.334;3.244;2022-12-05T10:37:51;40.38;;;21.75;;
22812;SDS011;11573;51.334;3.244;2022-12-05T10:40:19;38.90;;;21.60;;
22812;SDS011;11573;51.334;3.244;2022-12-05T10:42:47;40.08;;;22.35;;
22812;SDS011;11573;51.334;3.244;2022-12-05T10:45:24;35.38;;;20.73;;
22812;SDS011;11573;51.334;3.244;2022-12-05T10:47:55;32.67;;;21.38;;
22812;SDS011;11573;51.334;3.244;2022-12-05T10:50:33;41.42;;;21.58;;
22812;SDS011;11573;51.334;3.244;2022-12-05T10:53:04;33.55;;;21.83;;
22812;SDS011;11573;51.334;3.244;2022-12-05T10:55:36;39.78;;;22.33;;
22812;SDS011;11573;51.334;3.244;2022-12-05T10:58:13;35.90;;;19.95;;
22812;SDS011;11573;51.334;3.244;2022-12-05T11:00:45;38.38;;;22.35;;
22812;SDS011;11573;51.334;3.244;2022-12-05T11:05:56;33.60;;;20.17;;
22812;SDS011;11573;51.334;3.244;2022-12-05T11:08:29;34.20;;;20.75;;
22812;SDS011;11573;51.334;3.244;2022-12-05T11:16:25;40.05;;;21.92;;
22812;SDS011;11573;51.334;3.244;2022-12-05T11:22:02;35.15;;;20.00;;
22812;SDS011;11573;51.334;3.244;2022-12-05T11:30:24;30.00;;;19.20;;
22812;SDS011;11573;51.334;3.244;2022-12-05T11:35:45;28.85;;;17.75;;
22812;SDS011;11573;51.334;3.244;2022-12-05T11:38:13;30.23;;;18.45;;
22812;SDS011;11573;51.334;3.244;2022-12-05T11:40:46;31.13;;;18.42;;
22812;SDS011;11573;51.334;3.244;2022-12-05T11:43:34;32.90;;;19.40;;
22812;SDS011;11573;51.334;3.244;2022-12-05T12:00:29;29.85;;;17.70;;
22812;SDS011;11573;51.334;3.244;2022-12-05T12:26:10;34.88;;;21.23;;
22812;SDS011;11573;51.334;3.244;2022-12-05T12:28:45;32.05;;;20.30;;
22812;SDS011;11573;51.334;3.244;2022-12-05T12:31:39;27.80;;;19.35;;
22812;SDS011;11573;51.334;3.244;2022-12-05T12:34:49;25.90;;;17.45;;
22812;SDS011;11573;51.334;3.244;2022-12-05T12:37:39;25.33;;;17.70;;
22812;SDS011;11573;51.334;3.244;2022-12-05T12:40:42;28.23;;;17.20;;
22812;SDS011;11573;51.334;3.244;2022-12-05T12:43:21;26.45;;;18.60;;
22812;SDS011;11573;51.334;3.244;2022-12-05T12:51:48;26.02;;;17.00;;
22812;SDS011;11573;51.334;3.244;2022-12-05T12:59:58;26.02;;;17.27;;
22812;SDS011;11573;51.334;3.244;2022-12-05T13:05:14;26.23;;;17.17;;
22812;SDS011;11573;51.334;3.244;2022-12-05T13:10:45;26.75;;;16.83;;
22812;SDS011;11573;51.334;3.244;2022-12-05T13:13:25;22.90;;;16.35;;
22812;SDS011;11573;51.334;3.244;2022-12-05T13:15:59;30.13;;;16.92;;
22812;SDS011;11573;51.334;3.244;2022-12-05T13:18:31;26.38;;;15.32;;
22812;SDS011;11573;51.334;3.244;2022-12-05T13:21:00;22.75;;;14.43;;
22812;SDS011;11573;51.334;3.244;2022-12-05T13:23:31;28.55;;;15.80;;
22812;SDS011;11573;51.334;3.244;2022-12-05T13:26:06;24.23;;;16.08;;
22812;SDS011;11573;51.334;3.244;2022-12-05T13:28:36;25.13;;;14.98;;
22812;SDS011;11573;51.334;3.244;2022-12-05T13:31:08;20.10;;;13.90;;
22812;SDS011;11573;51.334;3.244;2022-12-05T13:33:43;24.35;;;14.85;;
22812;SDS011;11573;51.334;3.244;2022-12-05T13:36:13;24.45;;;15.57;;
22812;SDS011;11573;51.334;3.244;2022-12-05T13:39:05;25.27;;;15.88;;
22812;SDS011;11573;51.334;3.244;2022-12-05T13:42:04;22.15;;;16.42;;
22812;SDS011;11573;51.334;3.244;2022-12-05T13:44:50;22.88;;;16.55;;
22812;SDS011;11573;51.334;3.244;2022-12-05T13:50:18;26.67;;;16.52;;
22812;SDS011;11573;51.334;3.244;2022-12-05T13:52:59;20.85;;;15.05;;
22812;SDS011;11573;51.334;3.244;2022-12-05T13:55:33;22.67;;;14.75;;
22812;SDS011;11573;51.334;3.244;2022-12-05T14:00:44;22.10;;;14.40;;
22812;SDS011;11573;51.334;3.244;2022-12-05T14:05:48;24.08;;;13.90;;
22812;SDS011;11573;51.334;3.244;2022-12-05T14:17:00;21.77;;;14.25;;
22812;SDS011;11573;51.334;3.244;2022-12-05T14:24:22;18.58;;;13.10;;
22812;SDS011;11573;51.334;3.244;2022-12-05T14:27:12;18.38;;;13.07;;
22812;SDS011;11573;51.334;3.244;2022-12-05T14:32:33;20.58;;;13.65;;
22812;SDS011;11573;51.334;3.244;2022-12-05T14:35:14;18.45;;;13.48;;
22812;SDS011;11573;51.334;3.244;2022-12-05T14:37:54;23.63;;;13.82;;
22812;SDS011;11573;51.334;3.244;2022-12-05T14:40:29;18.98;;;13.32;;
22812;SDS011;11573;51.334;3.244;2022-12-05T14:42:59;21.70;;;14.38;;
22812;SDS011;11573;51.334;3.244;2022-12-05T14:50:46;20.75;;;12.27;;
22812;SDS011;11573;51.334;3.244;2022-12-05T14:53:26;21.35;;;13.30;;
22812;SDS011;11573;51.334;3.244;2022-12-05T15:01:43;13.00;;;9.43;;
22812;SDS011;11573;51.334;3.244;2022-12-05T15:09:29;16.00;;;10.90;;
22812;SDS011;11573;51.334;3.244;2022-12-05T15:12:09;12.45;;;9.30;;
22812;SDS011;11573;51.334;3.244;2022-12-05T15:17:29;12.90;;;8.88;;
22812;SDS011;11573;51.334;3.244;2022-12-05T15:20:05;10.10;;;8.00;;
22812;SDS011;11573;51.334;3.244;2022-12-05T15:22:40;12.93;;;8.40;;
22812;SDS011;11573;51.334;3.244;2022-12-05T15:25:20;11.40;;;8.60;;
22812;SDS011;11573;51.334;3.244;2022-12-05T15:28:17;17.38;;;9.40;;
22812;SDS011;11573;51.334;3.244;2022-12-05T15:30:53;11.60;;;7.95;;
22812;SDS011;11573;51.334;3.244;2022-12-05T15:33:21;10.15;;;7.80;;
22812;SDS011;11573;51.334;3.244;2022-12-05T15:35:51;9.25;;;7.40;;
22812;SDS011;11573;51.334;3.244;2022-12-05T15:38:29;10.82;;;9.07;;
22812;SDS011;11573;51.334;3.244;2022-12-05T15:40:59;13.48;;;9.23;;
22812;SDS011;11573;51.334;3.244;2022-12-05T15:43:33;11.10;;;7.82;;
22812;SDS011;11573;51.334;3.244;2022-12-05T15:46:19;12.60;;;9.45;;
22812;SDS011;11573;51.334;3.244;2022-12-05T15:48:53;10.23;;;7.53;;
22812;SDS011;11573;51.334;3.244;2022-12-05T15:51:32;11.82;;;7.63;;
22812;SDS011;11573;51.334;3.244;2022-12-05T15:56:42;10.13;;;7.75;;
22812;SDS011;11573;51.334;3.244;2022-12-05T15:59:18;10.38;;;6.97;;
22812;SDS011;11573;51.334;3.244;2022-12-05T16:02:16;9.25;;;7.22;;
22812;SDS011;11573;51.334;3.244;2022-12-05T16:04:50;11.10;;;8.52;;
22812;SDS011;11573;51.334;3.244;2022-12-05T16:07:20;10.45;;;7.78;;
22812;SDS011;11573;51.334;3.244;2022-12-05T16:09:49;10.73;;;7.97;;
22812;SDS011;11573;51.334;3.244;2022-12-05T16:15:01;12.63;;;7.55;;
22812;SDS011;11573;51.334;3.244;2022-12-05T16:17:36;10.52;;;8.00;;
22812;SDS011;11573;51.334;3.244;2022-12-05T16:22:44;12.95;;;8.70;;
22812;SDS011;11573;51.334;3.244;2022-12-05T16:25:15;12.13;;;8.73;;
22812;SDS011;11573;51.334;3.244;2022-12-05T16:27:54;11.73;;;10.02;;
22812;SDS011;11573;51.334;3.244;2022-12-05T16:30:52;12.48;;;8.48;;
22812;SDS011;11573;51.334;3.244;2022-12-05T16:33:23;12.48;;;8.93;;
22812;SDS011;11573;51.334;3.244;2022-12-05T16:35:52;10.25;;;8.18;;
22812;SDS011;11573;51.334;3.244;2022-12-05T16:38:19;15.40;;;9.23;;
22812;SDS011;11573;51.334;3.244;2022-12-05T16:46:07;11.13;;;8.48;;
22812;SDS011;11573;51.334;3.244;2022-12-05T16:54:44;110.65;;;59.75;;
22812;SDS011;11573;51.334;3.244;2022-12-05T16:57:12;29.25;;;14.00;;
22812;SDS011;11573;51.334;3.244;2022-12-05T16:59:40;28.80;;;13.02;;
22812;SDS011;11573;51.334;3.244;2022-12-05T17:02:11;14.75;;;8.70;;
22812;SDS011;11573;51.334;3.244;2022-12-05T17:04:40;15.73;;;9.75;;
22812;SDS011;11573;51.334;3.244;2022-12-05T17:07:07;16.13;;;8.88;;
22812;SDS011;11573;51.334;3.244;2022-12-05T17:09:34;11.93;;;7.00;;
22812;SDS011;11573;51.334;3.244;2022-12-05T17:12:12;13.38;;;8.15;;
22812;SDS011;11573;51.334;3.244;2022-12-05T17:14:47;12.40;;;8.15;;
22812;SDS011;11573;51.334;3.244;2022-12-05T17:17:14;15.38;;;8.25;;
22812;SDS011;11573;51.334;3.244;2022-12-05T17:19:43;16.00;;;8.52;;
22812;SDS011;11573;51.334;3.244;2022-12-05T17:22:11;18.60;;;9.57;;
22812;SDS011;11573;51.334;3.244;2022-12-05T17:24:39;16.98;;;11.07;;
22812;SDS011;11573;51.334;3.244;2022-12-05T17:27:10;14.73;;;10.10;;
22812;SDS011;11573;51.334;3.244;2022-12-05T17:29:37;13.70;;;8.10;;
22812;SDS011;11573;51.334;3.244;2022-12-05T17:32:04;11.98;;;7.75;;
22812;SDS011;11573;51.334;3.244;2022-12-05T17:34:31;11.45;;;7.25;;
22812;SDS011;11573;51.334;3.244;2022-12-05T17:36:58;12.02;;;7.93;;
22812;SDS011;11573;51.334;3.244;2022-12-05T17:39:25;24.83;;;11.32;;
22812;SDS011;11573;51.334;3.244;2022-12-05T17:41:54;12.68;;;7.57;;
22812;SDS011;11573;51.334;3.244;2022-12-05T17:44:21;11.75;;;6.82;;
22812;SDS011;11573;51.334;3.244;2022-12-05T17:46:48;9.95;;;6.47;;
22812;SDS011;11573;51.334;3.244;2022-12-05T17:49:15;9.00;;;6.18;;
22812;SDS011;11573;51.334;3.244;2022-12-05T17:51:43;11.82;;;6.13;;
22812;SDS011;11573;51.334;3.244;2022-12-05T17:54:30;15.13;;;6.20;;
22812;SDS011;11573;51.334;3.244;2022-12-05T17:56:57;18.27;;;11.40;;
22812;SDS011;11573;51.334;3.244;2022-12-05T17:59:24;14.48;;;10.15;;
22812;SDS011;11573;51.334;3.244;2022-12-05T18:01:51;11.23;;;7.03;;
22812;SDS011;11573;51.334;3.244;2022-12-05T18:04:18;13.07;;;8.45;;
22812;SDS011;11573;51.334;3.244;2022-12-05T18:06:48;36.78;;;19.92;;
22812;SDS011;11573;51.334;3.244;2022-12-05T18:09:16;24.02;;;13.95;;
22812;SDS011;11573;51.334;3.244;2022-12-05T18:11:43;17.35;;;10.23;;
22812;SDS011;11573;51.334;3.244;2022-12-05T18:14:10;10.05;;;5.45;;
22812;SDS011;11573;51.334;3.244;2022-12-05T18:16:37;13.68;;;7.47;;
22812;SDS011;11573;51.334;3.244;2022-12-05T18:19:04;9.20;;;6.93;;
22812;SDS011;11573;51.334;3.244;2022-12-05T18:21:33;19.10;;;13.05;;
22812;SDS011;11573;51.334;3.244;2022-12-05T18:24:00;35.05;;;23.30;;
22812;SDS011;11573;51.334;3.244;2022-12-05T18:26:27;18.63;;;10.25;;